หน้าหลัก
METAR-TAF:

METAR-TAF

ท่าอากาศยาน :

Igloolik, นูนาวุต, แคนาดา

ละติจูด: 69-22N, ลองจิจูด: 081-49W, ความสูง: 51 ม.

การสังเกตสภาพอากาศปัจจุบัน

รายงานได้ทำขึ้นเมื่อ 9 ชั่วโมงและ 9 นาทีที่แล้ว ณ เวลา 21:00 UTC
ลม 30 นอตจากตะวันตกเฉียงเหนือ
อุณหภูมิ -22°C
ความชื้น 70%
ความกดอากาศ 1014 hPa
ทัศนวิสัย: 16.1 กม.
มีเมฆกระจายเป็นบางส่วนที่ความสูง 16000 ฟุต
หิมะล่องลอยระดับต่ำ

METAR: CYGT 192100Z 32030KT 10SM DRSN SCT160 M22/M26 A2994 RMK AS3 LAST STFD OBS/NXT/201500Z PRESFR SLP151

เวลา: 02:09 (06:09 UTC)

การพยากรณ์

รายงานได้ทำขึ้นเมื่อ 16 ชั่วโมงและ 57 นาทีที่แล้ว ณ เวลา 13:12 UTC
การพยากรณ์มีผลตั้งแต่วันที่ 19 ณ เวลา 13 UTC จนถึงวันที่ 19 ณ เวลา 21 UTC
ลม 15 นอตจากตะวันตกเฉียงเหนือ
ทัศนวิสัย: 10 กม.
มีเมฆน้อยที่ความสูง 3000 ฟุต
มีเมฆกระจายเป็นบางส่วนที่ความสูง 22000 ฟุต

TAF: CYGT 191312Z 1913/1921 32015KT P6SM FEW030 SCT220 RMK NXT FCST BY 191900Z

สังเกตการณ์สภาพอากาศและพยากรณ์อากาศของสนามบินมากกว่า 4000 แห่ง (รายงาน METAR และ TAF).

สถานีที่ดูได้จะแสดงไว้ด้วยจุดสีเหลืองและสีแดงบนแผนที่.

เลื่อนเมาส์ไปเหนือจุดเพื่อดูชื่อสถานี.

แล้วคลิกเพื่อดูสังเกตการณ์และการพยากรณ์สภาพอากาศ.

ในการเปลี่ยนแผนที่: คลิกที่ปุ่มสีเขียวที่มีกากบาทสีดำเพื่อซูมเข้า; ที่ปุ่มสีเขียวที่มีขีดเพื่อซูมออก; หรือที่ลูกศรสีเขียวเพื่อไปยังแผนที่ที่อยู่ติดกัน.


METAR-TAF: